sensor_id;sensor_type;location;lat;lon;timestamp;noise_LAeq;noise_LA_min;noise_LA_max;noise_LA01;noise_LA95
67304;Laerm;57660;51.436;5.978;2023-04-26T00:00:15;48.73;29.78;57.79;;
67304;Laerm;57660;51.436;5.978;2023-04-26T00:00:26;31.53;30.24;34.81;;
67304;Laerm;57660;51.436;5.978;2023-04-26T00:00:41;31.41;30.37;32.63;;
67304;Laerm;57660;51.436;5.978;2023-04-26T00:00:54;31.50;30.35;36.71;;
67304;Laerm;57660;51.436;5.978;2023-04-26T00:01:10;31.93;29.94;40.90;;
67304;Laerm;57660;51.436;5.978;2023-04-26T00:01:20;31.41;30.24;33.21;;
67304;Laerm;57660;51.436;5.978;2023-04-26T00:01:34;31.47;30.27;32.55;;
67304;Laerm;57660;51.436;5.978;2023-04-26T00:01:45;31.41;30.18;32.51;;
67304;Laerm;57660;51.436;5.978;2023-04-26T00:01:56;31.46;30.38;32.60;;
67304;Laerm;57660;51.436;5.978;2023-04-26T00:02:06;31.59;30.33;32.75;;
67304;Laerm;57660;51.436;5.978;2023-04-26T00:02:16;31.58;30.49;32.72;;
67304;Laerm;57660;51.436;5.978;2023-04-26T00:02:27;31.72;30.55;33.46;;
67304;Laerm;57660;51.436;5.978;2023-04-26T00:02:38;31.67;30.32;33.14;;
67304;Laerm;57660;51.436;5.978;2023-04-26T00:02:49;31.79;30.58;33.38;;
67304;Laerm;57660;51.436;5.978;2023-04-26T00:03:08;31.60;30.11;36.98;;
67304;Laerm;57660;51.436;5.978;2023-04-26T00:03:19;31.74;30.29;33.15;;
67304;Laerm;57660;51.436;5.978;2023-04-26T00:03:29;31.48;30.05;32.46;;
67304;Laerm;57660;51.436;5.978;2023-04-26T00:03:40;31.59;30.32;32.74;;
67304;Laerm;57660;51.436;5.978;2023-04-26T00:03:50;31.57;30.33;33.94;;
67304;Laerm;57660;51.436;5.978;2023-04-26T00:04:00;31.82;30.37;33.40;;
67304;Laerm;57660;51.436;5.978;2023-04-26T00:04:14;31.92;30.27;33.27;;
67304;Laerm;57660;51.436;5.978;2023-04-26T00:04:28;31.57;30.17;32.96;;
67304;Laerm;57660;51.436;5.978;2023-04-26T00:04:38;31.50;30.56;33.62;;
67304;Laerm;57660;51.436;5.978;2023-04-26T00:04:55;31.53;29.80;32.72;;
67304;Laerm;57660;51.436;5.978;2023-04-26T00:05:07;31.95;30.45;38.77;;
67304;Laerm;57660;51.436;5.978;2023-04-26T00:05:18;31.65;30.35;32.67;;
67304;Laerm;57660;51.436;5.978;2023-04-26T00:05:28;31.81;30.52;32.94;;
67304;Laerm;57660;51.436;5.978;2023-04-26T00:05:41;31.97;30.68;34.04;;
67304;Laerm;57660;51.436;5.978;2023-04-26T00:05:51;32.91;30.92;38.08;;
67304;Laerm;57660;51.436;5.978;2023-04-26T00:06:02;37.18;32.39;41.74;;
67304;Laerm;57660;51.436;5.978;2023-04-26T00:06:16;40.09;33.69;45.11;;
67304;Laerm;57660;51.436;5.978;2023-04-26T00:06:26;32.77;30.66;37.22;;
67304;Laerm;57660;51.436;5.978;2023-04-26T00:06:36;31.66;30.13;33.54;;
67304;Laerm;57660;51.436;5.978;2023-04-26T00:06:46;31.62;30.21;32.84;;
67304;Laerm;57660;51.436;5.978;2023-04-26T00:07:03;31.73;30.43;32.86;;
67304;Laerm;57660;51.436;5.978;2023-04-26T00:07:14;31.78;30.69;34.15;;
67304;Laerm;57660;51.436;5.978;2023-04-26T00:07:24;31.82;30.70;33.02;;
67304;Laerm;57660;51.436;5.978;2023-04-26T00:07:35;31.82;30.40;34.45;;
67304;Laerm;57660;51.436;5.978;2023-04-26T00:07:47;31.82;30.59;33.31;;
67304;Laerm;57660;51.436;5.978;2023-04-26T00:07:59;31.49;30.35;34.38;;
67304;Laerm;57660;51.436;5.978;2023-04-26T00:08:09;31.39;30.50;32.50;;
67304;Laerm;57660;51.436;5.978;2023-04-26T00:08:20;31.90;30.62;37.01;;
67304;Laerm;57660;51.436;5.978;2023-04-26T00:08:30;32.07;30.32;34.32;;
67304;Laerm;57660;51.436;5.978;2023-04-26T00:08:40;31.72;30.44;32.86;;
67304;Laerm;57660;51.436;5.978;2023-04-26T00:08:52;31.91;30.52;33.33;;
67304;Laerm;57660;51.436;5.978;2023-04-26T00:09:02;31.85;30.51;33.36;;
67304;Laerm;57660;51.436;5.978;2023-04-26T00:09:14;32.84;30.99;35.51;;
67304;Laerm;57660;51.436;5.978;2023-04-26T00:09:24;33.60;30.98;42.75;;
67304;Laerm;57660;51.436;5.978;2023-04-26T00:09:34;31.88;30.72;33.20;;
67304;Laerm;57660;51.436;5.978;2023-04-26T00:09:45;31.71;30.63;32.82;;
67304;Laerm;57660;51.436;5.978;2023-04-26T00:09:55;31.59;30.36;32.61;;
67304;Laerm;57660;51.436;5.978;2023-04-26T00:10:05;32.11;30.54;34.16;;
67304;Laerm;57660;51.436;5.978;2023-04-26T00:10:16;31.61;30.27;32.94;;
67304;Laerm;57660;51.436;5.978;2023-04-26T00:10:26;32.06;30.81;33.33;;
67304;Laerm;57660;51.436;5.978;2023-04-26T00:10:36;32.10;30.83;33.71;;
67304;Laerm;57660;51.436;5.978;2023-04-26T00:10:47;31.54;30.42;33.44;;
67304;Laerm;57660;51.436;5.978;2023-04-26T00:10:57;31.52;30.19;32.81;;
67304;Laerm;57660;51.436;5.978;2023-04-26T00:11:07;31.45;30.47;33.33;;
67304;Laerm;57660;51.436;5.978;2023-04-26T00:11:18;31.78;30.41;32.94;;
67304;Laerm;57660;51.436;5.978;2023-04-26T00:11:37;32.16;30.99;33.87;;
67304;Laerm;57660;51.436;5.978;2023-04-26T00:11:50;33.02;30.84;35.86;;
67304;Laerm;57660;51.436;5.978;2023-04-26T00:12:00;33.28;31.56;35.09;;
67304;Laerm;57660;51.436;5.978;2023-04-26T00:12:11;33.34;31.69;35.00;;
67304;Laerm;57660;51.436;5.978;2023-04-26T00:12:22;33.44;31.94;34.94;;
67304;Laerm;57660;51.436;5.978;2023-04-26T00:12:32;33.40;31.65;35.02;;
67304;Laerm;57660;51.436;5.978;2023-04-26T00:12:43;33.60;32.32;35.49;;
67304;Laerm;57660;51.436;5.978;2023-04-26T00:12:56;33.67;31.91;35.39;;
67304;Laerm;57660;51.436;5.978;2023-04-26T00:13:06;33.45;31.26;35.70;;
67304;Laerm;57660;51.436;5.978;2023-04-26T00:13:23;32.12;30.95;33.10;;
67304;Laerm;57660;51.436;5.978;2023-04-26T00:13:33;32.07;30.52;33.47;;
67304;Laerm;57660;51.436;5.978;2023-04-26T00:14:04;32.01;30.65;33.05;;
67304;Laerm;57660;51.436;5.978;2023-04-26T00:14:15;31.47;30.18;33.03;;
67304;Laerm;57660;51.436;5.978;2023-04-26T00:14:25;31.37;29.90;32.77;;
67304;Laerm;57660;51.436;5.978;2023-04-26T00:14:36;31.31;30.21;32.42;;
67304;Laerm;57660;51.436;5.978;2023-04-26T00:14:46;31.37;30.21;32.73;;
67304;Laerm;57660;51.436;5.978;2023-04-26T00:14:56;31.45;30.23;32.47;;
67304;Laerm;57660;51.436;5.978;2023-04-26T00:15:07;31.49;30.37;32.92;;
67304;Laerm;57660;51.436;5.978;2023-04-26T00:15:26;31.51;30.08;32.71;;
67304;Laerm;57660;51.436;5.978;2023-04-26T00:15:36;31.59;30.52;32.59;;
67304;Laerm;57660;51.436;5.978;2023-04-26T00:15:46;31.82;30.53;33.13;;
67304;Laerm;57660;51.436;5.978;2023-04-26T00:15:57;31.76;30.51;37.83;;
67304;Laerm;57660;51.436;5.978;2023-04-26T00:16:07;31.51;30.15;32.55;;
67304;Laerm;57660;51.436;5.978;2023-04-26T00:16:17;31.43;30.40;32.54;;
67304;Laerm;57660;51.436;5.978;2023-04-26T00:16:29;31.42;30.19;32.49;;
67304;Laerm;57660;51.436;5.978;2023-04-26T00:16:39;31.57;30.36;32.57;;
67304;Laerm;57660;51.436;5.978;2023-04-26T00:16:49;31.63;30.63;32.77;;
67304;Laerm;57660;51.436;5.978;2023-04-26T00:16:59;31.69;30.53;32.74;;
67304;Laerm;57660;51.436;5.978;2023-04-26T00:17:12;31.75;30.49;33.00;;
67304;Laerm;57660;51.436;5.978;2023-04-26T00:17:22;31.74;30.55;33.91;;
67304;Laerm;57660;51.436;5.978;2023-04-26T00:17:33;31.69;30.39;32.90;;
67304;Laerm;57660;51.436;5.978;2023-04-26T00:17:43;31.73;30.66;32.86;;
67304;Laerm;57660;51.436;5.978;2023-04-26T00:17:53;31.81;30.68;33.73;;
67304;Laerm;57660;51.436;5.978;2023-04-26T00:18:04;31.69;30.44;33.30;;
67304;Laerm;57660;51.436;5.978;2023-04-26T00:18:14;31.62;30.30;33.11;;
67304;Laerm;57660;51.436;5.978;2023-04-26T00:18:27;31.74;30.45;32.90;;
67304;Laerm;57660;51.436;5.978;2023-04-26T00:18:37;31.71;30.20;32.83;;
67304;Laerm;57660;51.436;5.978;2023-04-26T00:18:48;31.69;30.68;32.71;;
67304;Laerm;57660;51.436;5.978;2023-04-26T00:18:58;31.60;30.63;32.92;;
67304;Laerm;57660;51.436;5.978;2023-04-26T00:19:10;31.44;30.44;32.67;;
67304;Laerm;57660;51.436;5.978;2023-04-26T00:19:21;31.38;30.27;32.84;;
67304;Laerm;57660;51.436;5.978;2023-04-26T00:19:33;31.51;30.26;34.03;;
67304;Laerm;57660;51.436;5.978;2023-04-26T00:19:43;31.59;30.38;32.97;;
67304;Laerm;57660;51.436;5.978;2023-04-26T00:20:00;31.51;30.40;32.71;;
67304;Laerm;57660;51.436;5.978;2023-04-26T00:20:10;31.36;30.43;32.79;;
67304;Laerm;57660;51.436;5.978;2023-04-26T00:20:25;31.37;30.13;32.46;;
67304;Laerm;57660;51.436;5.978;2023-04-26T00:20:35;31.39;30.23;33.70;;
67304;Laerm;57660;51.436;5.978;2023-04-26T00:20:45;31.68;30.63;33.26;;
67304;Laerm;57660;51.436;5.978;2023-04-26T00:20:56;31.50;30.30;32.55;;
67304;Laerm;57660;51.436;5.978;2023-04-26T00:21:06;31.67;30.51;32.96;;
67304;Laerm;57660;51.436;5.978;2023-04-26T00:21:16;31.51;30.50;32.69;;
67304;Laerm;57660;51.436;5.978;2023-04-26T00:21:27;31.67;30.36;32.80;;
67304;Laerm;57660;51.436;5.978;2023-04-26T00:21:40;31.88;30.47;35.07;;
67304;Laerm;57660;51.436;5.978;2023-04-26T00:21:51;31.66;30.51;33.24;;
67304;Laerm;57660;51.436;5.978;2023-04-26T00:22:02;31.66;30.29;33.09;;
67304;Laerm;57660;51.436;5.978;2023-04-26T00:22:12;31.70;30.70;32.68;;
67304;Laerm;57660;51.436;5.978;2023-04-26T00:22:23;31.58;30.15;33.06;;
67304;Laerm;57660;51.436;5.978;2023-04-26T00:22:34;31.79;30.55;33.63;;
67304;Laerm;57660;51.436;5.978;2023-04-26T00:22:44;32.09;30.96;33.68;;
67304;Laerm;57660;51.436;5.978;2023-04-26T00:22:58;31.97;30.78;33.43;;
67304;Laerm;57660;51.436;5.978;2023-04-26T00:23:08;31.74;30.57;37.20;;
67304;Laerm;57660;51.436;5.978;2023-04-26T00:23:19;31.62;30.42;32.83;;
67304;Laerm;57660;51.436;5.978;2023-04-26T00:23:30;31.64;30.53;32.61;;
67304;Laerm;57660;51.436;5.978;2023-04-26T00:23:53;31.89;30.63;33.41;;
67304;Laerm;57660;51.436;5.978;2023-04-26T00:24:04;32.29;30.77;34.13;;
67304;Laerm;57660;51.436;5.978;2023-04-26T00:24:20;32.42;30.96;37.46;;
67304;Laerm;57660;51.436;5.978;2023-04-26T00:24:31;32.38;30.93;34.49;;
67304;Laerm;57660;51.436;5.978;2023-04-26T00:24:41;32.65;30.90;44.43;;
67304;Laerm;57660;51.436;5.978;2023-04-26T00:24:52;32.43;30.91;34.19;;
67304;Laerm;57660;51.436;5.978;2023-04-26T00:25:08;32.26;31.07;33.34;;
67304;Laerm;57660;51.436;5.978;2023-04-26T00:25:18;32.35;31.02;33.52;;
67304;Laerm;57660;51.436;5.978;2023-04-26T00:25:29;32.51;31.38;33.87;;
67304;Laerm;57660;51.436;5.978;2023-04-26T00:25:39;32.42;30.80;33.36;;
67304;Laerm;57660;51.436;5.978;2023-04-26T00:25:49;32.16;30.97;33.56;;
67304;Laerm;57660;51.436;5.978;2023-04-26T00:25:59;31.83;30.30;33.16;;
67304;Laerm;57660;51.436;5.978;2023-04-26T00:26:10;31.91;30.30;40.10;;
67304;Laerm;57660;51.436;5.978;2023-04-26T00:26:23;31.83;30.40;37.20;;
67304;Laerm;57660;51.436;5.978;2023-04-26T00:26:34;31.76;30.64;32.90;;
67304;Laerm;57660;51.436;5.978;2023-04-26T00:26:44;31.70;30.55;32.85;;
67304;Laerm;57660;51.436;5.978;2023-04-26T00:26:54;31.69;30.71;32.71;;
67304;Laerm;57660;51.436;5.978;2023-04-26T00:27:11;31.73;30.31;32.80;;
67304;Laerm;57660;51.436;5.978;2023-04-26T00:27:21;31.77;30.82;32.61;;
67304;Laerm;57660;51.436;5.978;2023-04-26T00:27:32;31.72;30.64;33.43;;
67304;Laerm;57660;51.436;5.978;2023-04-26T00:27:42;31.58;30.35;32.78;;
67304;Laerm;57660;51.436;5.978;2023-04-26T00:27:52;31.55;30.72;33.34;;
67304;Laerm;57660;51.436;5.978;2023-04-26T00:28:03;31.61;30.30;34.81;;
67304;Laerm;57660;51.436;5.978;2023-04-26T00:28:13;31.51;30.48;32.79;;
67304;Laerm;57660;51.436;5.978;2023-04-26T00:28:23;31.67;30.54;32.89;;
67304;Laerm;57660;51.436;5.978;2023-04-26T00:28:34;31.76;30.69;33.50;;
67304;Laerm;57660;51.436;5.978;2023-04-26T00:28:44;31.87;30.80;33.20;;
67304;Laerm;57660;51.436;5.978;2023-04-26T00:28:54;31.88;30.83;33.34;;
67304;Laerm;57660;51.436;5.978;2023-04-26T00:29:05;31.81;30.52;33.69;;
67304;Laerm;57660;51.436;5.978;2023-04-26T00:29:15;31.54;30.17;32.90;;
67304;Laerm;57660;51.436;5.978;2023-04-26T00:29:26;31.52;30.45;32.62;;
67304;Laerm;57660;51.436;5.978;2023-04-26T00:29:36;31.68;30.11;33.04;;
67304;Laerm;57660;51.436;5.978;2023-04-26T00:29:49;31.70;30.31;32.89;;
67304;Laerm;57660;51.436;5.978;2023-04-26T00:30:00;31.62;30.40;32.97;;
67304;Laerm;57660;51.436;5.978;2023-04-26T00:30:10;31.82;30.62;33.03;;
67304;Laerm;57660;51.436;5.978;2023-04-26T00:30:41;32.00;30.66;35.45;;
67304;Laerm;57660;51.436;5.978;2023-04-26T00:30:58;32.41;31.00;34.29;;
67304;Laerm;57660;51.436;5.978;2023-04-26T00:31:13;43.10;32.25;57.66;;
67304;Laerm;57660;51.436;5.978;2023-04-26T00:31:23;45.20;32.68;49.86;;
67304;Laerm;57660;51.436;5.978;2023-04-26T00:31:36;44.67;41.27;48.68;;
67304;Laerm;57660;51.436;5.978;2023-04-26T00:31:47;44.51;42.18;46.82;;
67304;Laerm;57660;51.436;5.978;2023-04-26T00:31:57;64.79;45.20;77.08;;
67304;Laerm;57660;51.436;5.978;2023-04-26T00:32:08;75.54;72.02;81.27;;
67304;Laerm;57660;51.436;5.978;2023-04-26T00:32:21;64.81;43.22;74.84;;
67304;Laerm;57660;51.436;5.978;2023-04-26T00:32:31;37.58;32.15;45.82;;
67304;Laerm;57660;51.436;5.978;2023-04-26T00:32:44;32.71;30.62;36.56;;
67304;Laerm;57660;51.436;5.978;2023-04-26T00:33:02;32.30;31.15;33.58;;
67304;Laerm;57660;51.436;5.978;2023-04-26T00:33:12;45.35;31.34;49.98;;
67304;Laerm;57660;51.436;5.978;2023-04-26T00:33:23;45.37;40.97;49.87;;
67304;Laerm;57660;51.436;5.978;2023-04-26T00:33:33;42.23;39.00;44.78;;
67304;Laerm;57660;51.436;5.978;2023-04-26T00:33:44;42.20;39.76;44.03;;
67304;Laerm;57660;51.436;5.978;2023-04-26T00:33:54;42.84;40.87;44.78;;
67304;Laerm;57660;51.436;5.978;2023-04-26T00:34:04;66.55;41.30;79.03;;
67304;Laerm;57660;51.436;5.978;2023-04-26T00:34:15;77.63;74.44;80.10;;
67304;Laerm;57660;51.436;5.978;2023-04-26T00:34:35;72.79;50.09;80.70;;
67304;Laerm;57660;51.436;5.978;2023-04-26T00:34:45;48.44;42.41;57.71;;
67304;Laerm;57660;51.436;5.978;2023-04-26T00:34:56;42.35;38.88;45.33;;
67304;Laerm;57660;51.436;5.978;2023-04-26T00:35:06;41.20;38.76;43.09;;
67304;Laerm;57660;51.436;5.978;2023-04-26T00:35:18;39.43;37.22;41.62;;
67304;Laerm;57660;51.436;5.978;2023-04-26T00:35:28;43.13;38.54;49.23;;
67304;Laerm;57660;51.436;5.978;2023-04-26T00:35:41;46.70;41.37;49.55;;
67304;Laerm;57660;51.436;5.978;2023-04-26T00:35:51;43.80;41.14;45.62;;
67304;Laerm;57660;51.436;5.978;2023-04-26T00:36:02;45.27;41.46;47.85;;
67304;Laerm;57660;51.436;5.978;2023-04-26T00:36:12;58.84;44.74;71.58;;
67304;Laerm;57660;51.436;5.978;2023-04-26T00:36:25;74.67;61.93;79.32;;
67304;Laerm;57660;51.436;5.978;2023-04-26T00:36:36;52.72;36.09;63.21;;
67304;Laerm;57660;51.436;5.978;2023-04-26T00:36:47;35.02;32.01;37.82;;
67304;Laerm;57660;51.436;5.978;2023-04-26T00:36:57;32.44;31.18;34.54;;
67304;Laerm;57660;51.436;5.978;2023-04-26T00:37:07;31.84;30.68;33.15;;
67304;Laerm;57660;51.436;5.978;2023-04-26T00:37:17;31.72;30.60;32.89;;
67304;Laerm;57660;51.436;5.978;2023-04-26T00:37:28;31.60;30.51;32.98;;
67304;Laerm;57660;51.436;5.978;2023-04-26T00:37:38;31.63;30.64;33.16;;
67304;Laerm;57660;51.436;5.978;2023-04-26T00:37:48;31.76;30.57;33.39;;
67304;Laerm;57660;51.436;5.978;2023-04-26T00:37:58;31.69;30.44;32.88;;
67304;Laerm;57660;51.436;5.978;2023-04-26T00:38:09;31.88;30.67;33.41;;
67304;Laerm;57660;51.436;5.978;2023-04-26T00:38:19;31.98;30.77;33.35;;
67304;Laerm;57660;51.436;5.978;2023-04-26T00:38:30;32.14;31.01;33.65;;
67304;Laerm;57660;51.436;5.978;2023-04-26T00:38:40;32.02;30.72;33.16;;
67304;Laerm;57660;51.436;5.978;2023-04-26T00:38:53;32.16;31.01;33.24;;
67304;Laerm;57660;51.436;5.978;2023-04-26T00:39:03;32.09;30.64;33.45;;
67304;Laerm;57660;51.436;5.978;2023-04-26T00:39:14;32.41;31.02;33.92;;
67304;Laerm;57660;51.436;5.978;2023-04-26T00:39:28;32.62;31.17;33.85;;
67304;Laerm;57660;51.436;5.978;2023-04-26T00:39:39;32.74;31.39;34.24;;
67304;Laerm;57660;51.436;5.978;2023-04-26T00:39:49;32.64;31.35;33.74;;
67304;Laerm;57660;51.436;5.978;2023-04-26T00:39:59;32.06;30.97;33.46;;
67304;Laerm;57660;51.436;5.978;2023-04-26T00:40:10;31.81;30.71;33.02;;
67304;Laerm;57660;51.436;5.978;2023-04-26T00:40:20;31.83;30.68;32.82;;
67304;Laerm;57660;51.436;5.978;2023-04-26T00:40:31;31.90;30.58;33.01;;
67304;Laerm;57660;51.436;5.978;2023-04-26T00:40:41;32.10;31.09;33.08;;
67304;Laerm;57660;51.436;5.978;2023-04-26T00:40:54;32.37;31.13;34.41;;
67304;Laerm;57660;51.436;5.978;2023-04-26T00:41:04;32.21;31.07;33.47;;
67304;Laerm;57660;51.436;5.978;2023-04-26T00:41:14;32.39;31.16;34.21;;
67304;Laerm;57660;51.436;5.978;2023-04-26T00:41:25;32.37;30.99;33.34;;
67304;Laerm;57660;51.436;5.978;2023-04-26T00:41:35;32.40;31.13;33.68;;
67304;Laerm;57660;51.436;5.978;2023-04-26T00:41:46;32.64;31.17;34.41;;
67304;Laerm;57660;51.436;5.978;2023-04-26T00:41:56;33.23;31.39;37.11;;
67304;Laerm;57660;51.436;5.978;2023-04-26T00:42:07;34.14;32.59;36.14;;
67304;Laerm;57660;51.436;5.978;2023-04-26T00:42:17;42.62;33.28;48.85;;
67304;Laerm;57660;51.436;5.978;2023-04-26T00:42:28;46.92;42.59;50.40;;
67304;Laerm;57660;51.436;5.978;2023-04-26T00:42:38;44.57;42.53;46.46;;
67304;Laerm;57660;51.436;5.978;2023-04-26T00:42:55;45.98;43.70;48.22;;
67304;Laerm;57660;51.436;5.978;2023-04-26T00:43:06;74.65;45.94;84.92;;
67304;Laerm;57660;51.436;5.978;2023-04-26T00:43:16;76.38;72.39;79.97;;
67304;Laerm;57660;51.436;5.978;2023-04-26T00:43:26;74.43;53.99;80.67;;
67304;Laerm;57660;51.436;5.978;2023-04-26T00:43:37;48.53;40.96;55.26;;
67304;Laerm;57660;51.436;5.978;2023-04-26T00:43:48;39.09;34.04;42.60;;
67304;Laerm;57660;51.436;5.978;2023-04-26T00:43:58;33.74;31.44;36.13;;
67304;Laerm;57660;51.436;5.978;2023-04-26T00:44:09;32.32;30.79;34.07;;
67304;Laerm;57660;51.436;5.978;2023-04-26T00:44:19;31.86;30.39;33.32;;
67304;Laerm;57660;51.436;5.978;2023-04-26T00:44:30;31.82;30.39;33.08;;
67304;Laerm;57660;51.436;5.978;2023-04-26T00:44:40;31.75;30.65;32.97;;
67304;Laerm;57660;51.436;5.978;2023-04-26T00:44:50;31.66;30.51;33.05;;
67304;Laerm;57660;51.436;5.978;2023-04-26T00:45:04;31.80;30.59;32.93;;
67304;Laerm;57660;51.436;5.978;2023-04-26T00:45:17;32.02;30.76;33.23;;
67304;Laerm;57660;51.436;5.978;2023-04-26T00:45:27;32.35;31.23;33.48;;
67304;Laerm;57660;51.436;5.978;2023-04-26T00:45:38;32.58;31.26;33.64;;
67304;Laerm;57660;51.436;5.978;2023-04-26T00:45:48;33.03;31.35;34.56;;
67304;Laerm;57660;51.436;5.978;2023-04-26T00:46:07;44.38;32.43;49.27;;
67304;Laerm;57660;51.436;5.978;2023-04-26T00:46:18;43.98;41.24;48.77;;
67304;Laerm;57660;51.436;5.978;2023-04-26T00:46:36;44.41;42.16;48.14;;
67304;Laerm;57660;51.436;5.978;2023-04-26T00:46:46;46.14;43.20;49.22;;
67304;Laerm;57660;51.436;5.978;2023-04-26T00:46:57;77.76;48.19;84.68;;
67304;Laerm;57660;51.436;5.978;2023-04-26T00:47:07;80.19;75.56;84.54;;
67304;Laerm;57660;51.436;5.978;2023-04-26T00:47:18;77.96;63.31;82.21;;
67304;Laerm;57660;51.436;5.978;2023-04-26T00:47:28;56.04;47.66;64.37;;
67304;Laerm;57660;51.436;5.978;2023-04-26T00:47:39;48.55;45.45;51.79;;
67304;Laerm;57660;51.436;5.978;2023-04-26T00:47:59;47.07;44.39;49.19;;
67304;Laerm;57660;51.436;5.978;2023-04-26T00:48:10;44.48;40.55;48.67;;
67304;Laerm;57660;51.436;5.978;2023-04-26T00:48:21;40.79;36.91;44.30;;
67304;Laerm;57660;51.436;5.978;2023-04-26T00:48:41;38.36;35.88;40.81;;
67304;Laerm;57660;51.436;5.978;2023-04-26T00:48:51;36.65;33.30;44.08;;
67304;Laerm;57660;51.436;5.978;2023-04-26T00:49:02;34.87;32.88;36.78;;
67304;Laerm;57660;51.436;5.978;2023-04-26T00:49:16;34.69;33.19;36.02;;
67304;Laerm;57660;51.436;5.978;2023-04-26T00:49:28;34.35;32.60;36.05;;
67304;Laerm;57660;51.436;5.978;2023-04-26T00:49:38;34.23;32.71;35.68;;
67304;Laerm;57660;51.436;5.978;2023-04-26T00:49:55;33.89;32.53;35.48;;
67304;Laerm;57660;51.436;5.978;2023-04-26T00:50:06;33.63;31.99;35.11;;
67304;Laerm;57660;51.436;5.978;2023-04-26T00:50:17;33.51;31.80;35.00;;
67304;Laerm;57660;51.436;5.978;2023-04-26T00:50:28;33.45;32.02;34.97;;
67304;Laerm;57660;51.436;5.978;2023-04-26T00:50:39;33.46;32.00;35.23;;
67304;Laerm;57660;51.436;5.978;2023-04-26T00:50:49;33.44;31.97;34.78;;
67304;Laerm;57660;51.436;5.978;2023-04-26T00:50:59;33.34;32.03;34.75;;
67304;Laerm;57660;51.436;5.978;2023-04-26T00:51:10;33.39;32.12;35.86;;
67304;Laerm;57660;51.436;5.978;2023-04-26T00:51:28;33.22;31.71;34.51;;
67304;Laerm;57660;51.436;5.978;2023-04-26T00:51:38;33.05;31.62;34.54;;
67304;Laerm;57660;51.436;5.978;2023-04-26T00:51:49;33.22;31.65;34.85;;
67304;Laerm;57660;51.436;5.978;2023-04-26T00:52:00;33.57;32.27;35.82;;
67304;Laerm;57660;51.436;5.978;2023-04-26T00:52:11;38.82;33.84;43.66;;
67304;Laerm;57660;51.436;5.978;2023-04-26T00:52:21;38.44;32.27;43.18;;
67304;Laerm;57660;51.436;5.978;2023-04-26T00:52:38;34.35;32.32;39.69;;
67304;Laerm;57660;51.436;5.978;2023-04-26T00:52:51;48.87;37.79;53.50;;
67304;Laerm;57660;51.436;5.978;2023-04-26T00:53:02;46.62;42.00;52.87;;
67304;Laerm;57660;51.436;5.978;2023-04-26T00:53:22;43.62;42.44;45.00;;
67304;Laerm;57660;51.436;5.978;2023-04-26T00:53:32;47.98;42.08;60.42;;
67304;Laerm;57660;51.436;5.978;2023-04-26T00:53:46;71.69;56.65;75.53;;
67304;Laerm;57660;51.436;5.978;2023-04-26T00:53:56;69.78;45.93;76.91;;
67304;Laerm;57660;51.436;5.978;2023-04-26T00:54:07;43.91;36.09;50.73;;
67304;Laerm;57660;51.436;5.978;2023-04-26T00:54:18;36.21;33.32;41.00;;
67304;Laerm;57660;51.436;5.978;2023-04-26T00:54:31;34.39;32.76;37.78;;
67304;Laerm;57660;51.436;5.978;2023-04-26T00:54:42;34.41;32.80;36.26;;
67304;Laerm;57660;51.436;5.978;2023-04-26T00:54:52;34.19;32.86;35.82;;
67304;Laerm;57660;51.436;5.978;2023-04-26T00:55:03;33.78;32.50;35.21;;
67304;Laerm;57660;51.436;5.978;2023-04-26T00:55:13;34.49;31.96;42.82;;
67304;Laerm;57660;51.436;5.978;2023-04-26T00:55:27;33.15;31.86;35.25;;
67304;Laerm;57660;51.436;5.978;2023-04-26T00:55:37;33.34;31.78;34.44;;
67304;Laerm;57660;51.436;5.978;2023-04-26T00:55:54;33.24;31.77;34.82;;
67304;Laerm;57660;51.436;5.978;2023-04-26T00:56:05;33.48;31.80;35.43;;
67304;Laerm;57660;51.436;5.978;2023-04-26T00:56:16;33.04;31.26;34.40;;
67304;Laerm;57660;51.436;5.978;2023-04-26T00:56:30;32.47;30.97;33.69;;
67304;Laerm;57660;51.436;5.978;2023-04-26T00:56:41;32.24;30.90;33.72;;
67304;Laerm;57660;51.436;5.978;2023-04-26T00:56:52;32.49;31.05;39.12;;
67304;Laerm;57660;51.436;5.978;2023-04-26T00:57:03;32.35;30.79;37.40;;
67304;Laerm;57660;51.436;5.978;2023-04-26T00:57:22;32.12;30.71;33.27;;
67304;Laerm;57660;51.436;5.978;2023-04-26T00:57:32;32.23;30.85;33.57;;
67304;Laerm;57660;51.436;5.978;2023-04-26T00:57:48;32.45;31.11;33.75;;
67304;Laerm;57660;51.436;5.978;2023-04-26T00:57:59;33.10;31.99;34.60;;
67304;Laerm;57660;51.436;5.978;2023-04-26T00:58:10;33.00;31.38;34.38;;
67304;Laerm;57660;51.436;5.978;2023-04-26T00:58:20;32.69;31.31;33.99;;
67304;Laerm;57660;51.436;5.978;2023-04-26T00:58:30;32.59;31.10;33.88;;
67304;Laerm;57660;51.436;5.978;2023-04-26T00:58:41;33.04;31.83;34.41;;
67304;Laerm;57660;51.436;5.978;2023-04-26T00:58:51;32.86;31.61;34.01;;
67304;Laerm;57660;51.436;5.978;2023-04-26T00:59:02;32.82;31.20;34.14;;
67304;Laerm;57660;51.436;5.978;2023-04-26T00:59:12;32.88;31.48;34.27;;
67304;Laerm;57660;51.436;5.978;2023-04-26T00:59:23;32.85;31.59;35.45;;
67304;Laerm;57660;51.436;5.978;2023-04-26T00:59:33;32.65;31.50;34.50;;
67304;Laerm;57660;51.436;5.978;2023-04-26T00:59:44;32.76;31.51;33.86;;
67304;Laerm;57660;51.436;5.978;2023-04-26T00:59:54;32.86;31.55;34.16;;
67304;Laerm;57660;51.436;5.978;2023-04-26T01:00:05;44.98;31.41;60.79;;
67304;Laerm;57660;51.436;5.978;2023-04-26T01:00:15;48.34;31.84;60.68;;
67304;Laerm;57660;51.436;5.978;2023-04-26T01:00:26;32.39;31.04;33.72;;
67304;Laerm;57660;51.436;5.978;2023-04-26T01:00:36;32.63;31.21;33.69;;
67304;Laerm;57660;51.436;5.978;2023-04-26T01:00:47;32.70;31.24;34.04;;
67304;Laerm;57660;51.436;5.978;2023-04-26T01:01:06;32.58;31.32;33.96;;
67304;Laerm;57660;51.436;5.978;2023-04-26T01:01:18;32.84;31.26;34.53;;
67304;Laerm;57660;51.436;5.978;2023-04-26T01:01:28;36.12;32.40;44.65;;
67304;Laerm;57660;51.436;5.978;2023-04-26T01:01:39;44.22;38.02;49.89;;
67304;Laerm;57660;51.436;5.978;2023-04-26T01:01:59;40.48;34.86;50.55;;
67304;Laerm;57660;51.436;5.978;2023-04-26T01:02:09;46.35;35.05;51.12;;
67304;Laerm;57660;51.436;5.978;2023-04-26T01:02:29;45.54;40.00;50.46;;
67304;Laerm;57660;51.436;5.978;2023-04-26T01:02:39;41.26;39.23;43.17;;
67304;Laerm;57660;51.436;5.978;2023-04-26T01:02:50;43.02;39.85;48.32;;
67304;Laerm;57660;51.436;5.978;2023-04-26T01:03:06;75.58;46.63;81.38;;
67304;Laerm;57660;51.436;5.978;2023-04-26T01:03:18;72.33;45.64;78.63;;
67304;Laerm;57660;51.436;5.978;2023-04-26T01:03:29;45.00;40.73;50.75;;
67304;Laerm;57660;51.436;5.978;2023-04-26T01:04:03;36.65;34.47;39.96;;
67304;Laerm;57660;51.436;5.978;2023-04-26T01:04:13;35.51;32.98;37.96;;
67304;Laerm;57660;51.436;5.978;2023-04-26T01:04:35;34.52;31.78;36.78;;
67304;Laerm;57660;51.436;5.978;2023-04-26T01:04:46;33.23;31.71;36.57;;
67304;Laerm;57660;51.436;5.978;2023-04-26T01:04:57;32.57;30.97;34.64;;
67304;Laerm;57660;51.436;5.978;2023-04-26T01:05:07;32.76;31.20;37.99;;
67304;Laerm;57660;51.436;5.978;2023-04-26T01:05:27;36.28;30.81;53.48;;
67304;Laerm;57660;51.436;5.978;2023-04-26T01:05:37;32.61;30.73;37.74;;
67304;Laerm;57660;51.436;5.978;2023-04-26T01:05:47;32.39;30.91;36.91;;
67304;Laerm;57660;51.436;5.978;2023-04-26T01:05:58;32.44;30.89;35.65;;